Time;durP1;ratioP1;P1;durP2;ratioP2;P2;SDS_P1;SDS_P2;PMS_P1;PMS_P2;Temp;Humidity;BMP_temperature;BMP_pressure;BME280_temperature;BME280_humidity;BME280_pressure;Samples;Min_cycle;Max_cycle;Signal;HPM_P1;HPM_P2
2022/07/20 00:00:27;;;;;;;0.40;0.40;;;21.90;49.80;;;22.50;35.92;95404.31;5013094;28;20220;-77
2022/07/20 00:02:54;;;;;;;0.30;0.30;;;21.80;49.80;;;22.51;36.16;95401.38;4997894;28;20200;-78
2022/07/20 00:05:22;;;;;;;0.40;0.40;;;21.80;49.70;;;22.53;36.14;95403.78;5013554;28;20224;-78
2022/07/20 00:07:50;;;;;;;0.40;0.40;;;21.80;49.90;;;22.51;35.81;95398.69;5023347;28;20280;-78
2022/07/20 00:13:03;;;;;;;0.40;0.40;;;21.80;49.90;;;22.50;35.82;95401.63;5015663;28;20201;-78
2022/07/20 00:15:30;;;;;;;0.40;0.40;;;21.80;50.10;;;22.46;36.01;95400.50;5013445;28;20221;-78
2022/07/20 00:17:57;;;;;;;0.40;0.40;;;21.80;50.10;;;22.44;36.03;95399.97;5012316;28;20210;-77
2022/07/20 00:20:24;;;;;;;0.50;0.50;;;21.80;50.20;;;22.39;36.08;95400.75;4997199;28;20692;-77
2022/07/20 00:22:53;;;;;;;0.32;0.32;;;21.80;50.40;;;22.35;36.34;95400.41;5015571;28;20303;-78
2022/07/20 00:25:20;;;;;;;0.40;0.40;;;21.70;50.60;;;22.29;36.62;95395.25;5016793;28;20645;-78
2022/07/20 00:27:47;;;;;;;0.32;0.32;;;21.70;50.70;;;22.27;36.55;95402.75;4998488;28;20852;-77
2022/07/20 00:30:14;;;;;;;0.40;0.40;;;21.60;50.60;;;22.22;36.76;95395.50;5007164;28;20202;-78
2022/07/20 00:32:42;;;;;;;0.40;0.40;;;21.60;50.70;;;22.16;37.01;95391.16;4998375;28;20716;-77
2022/07/20 00:35:12;;;;;;;0.40;0.40;;;21.50;50.70;;;22.14;36.83;95395.94;4992678;28;20200;-77
2022/07/20 00:37:41;;;;;;;0.35;0.35;;;21.50;50.90;;;22.08;37.07;95395.06;5028633;28;20203;-78
2022/07/20 00:40:11;;;;;;;0.40;0.40;;;21.40;50.90;;;22.05;37.22;95384.91;5016337;28;20181;-78
2022/07/20 00:42:39;;;;;;;0.40;0.40;;;21.40;51.10;;;22.02;36.60;95393.41;5015844;28;20643;-77
2022/07/20 00:45:09;;;;;;;0.40;0.40;;;21.40;51.00;;;21.97;37.11;95388.03;5032646;28;20199;-77
2022/07/20 00:47:36;;;;;;;0.45;0.45;;;21.40;51.40;;;21.95;36.81;95393.63;5025821;28;20220;-78
2022/07/20 00:50:06;;;;;;;0.40;0.40;;;21.30;51.30;;;21.88;37.11;95385.00;5027952;28;20205;-78
2022/07/20 00:52:33;;;;;;;0.47;0.47;;;21.30;51.60;;;21.84;37.48;95387.38;5032554;28;20196;-78
2022/07/20 00:55:00;;;;;;;0.40;0.40;;;21.20;51.90;;;21.75;37.96;95386.19;5014170;28;20188;-78
2022/07/20 00:57:27;;;;;;;0.40;0.40;;;21.20;51.90;;;21.72;37.48;95392.06;5010671;28;20613;-78
2022/07/20 00:59:54;;;;;;;0.43;0.43;;;21.10;51.70;;;21.65;37.90;95383.44;5029036;28;20197;-78
2022/07/20 01:02:22;;;;;;;0.40;0.40;;;21.10;51.90;;;21.59;37.70;95391.38;5027359;28;20224;-78
2022/07/20 01:04:49;;;;;;;0.40;0.40;;;21.00;51.90;;;21.54;37.88;95385.16;5024223;28;20207;-77
2022/07/20 01:07:17;;;;;;;0.40;0.40;;;21.00;52.10;;;21.49;38.43;95388.56;5013492;28;20315;-77
2022/07/20 01:09:45;;;;;;;0.40;0.40;;;20.90;52.30;;;21.44;38.45;95386.63;5031175;28;20692;-77
2022/07/20 01:12:13;;;;;;;0.40;0.40;;;20.90;52.50;;;21.40;38.96;95396.19;5010961;28;20225;-78
2022/07/20 01:14:40;;;;;;;0.43;0.43;;;20.80;52.70;;;21.35;39.04;95389.97;5010414;28;20666;-78
2022/07/20 01:17:07;;;;;;;0.40;0.40;;;20.80;52.90;;;21.25;39.18;95383.47;5014673;28;20323;-77
2022/07/20 01:19:34;;;;;;;0.40;0.40;;;20.80;53.10;;;21.24;38.88;95392.53;5015498;28;20638;-77
2022/07/20 01:22:03;;;;;;;0.40;0.40;;;20.70;53.10;;;21.20;39.09;95386.09;5015498;28;20210;-77
2022/07/20 01:24:30;;;;;;;0.50;0.50;;;20.70;53.20;;;21.16;38.86;95387.63;5005460;28;20477;-78
2022/07/20 01:26:57;;;;;;;0.40;0.40;;;20.60;53.10;;;21.12;39.06;95386.50;5010835;28;20628;-78
2022/07/20 01:29:24;;;;;;;0.50;0.50;;;20.60;53.20;;;21.08;39.23;95386.19;5012040;28;20221;-76
2022/07/20 01:31:51;;;;;;;0.47;0.47;;;20.50;53.30;;;21.05;39.08;95389.34;5024194;28;20216;-77
2022/07/20 01:34:19;;;;;;;0.40;0.40;;;20.50;53.70;;;21.00;39.26;95386.63;5009260;28;20626;-78
2022/07/20 01:36:46;;;;;;;0.50;0.50;;;20.50;53.60;;;20.95;39.60;95386.56;5007670;28;20640;-78
2022/07/20 01:39:14;;;;;;;0.40;0.40;;;20.40;53.60;;;20.89;39.56;95374.19;4995766;28;20189;-78
2022/07/20 01:41:41;;;;;;;0.45;0.45;;;20.40;53.60;;;20.86;39.57;95388.84;5011385;28;20307;-78
2022/07/20 01:44:08;;;;;;;0.40;0.40;;;20.30;53.90;;;20.79;39.57;95385.53;5018615;28;20188;-78
2022/07/20 01:46:36;;;;;;;0.40;0.40;;;20.30;53.90;;;20.77;39.70;95382.28;5015308;28;20239;-78
2022/07/20 01:49:03;;;;;;;0.40;0.40;;;20.30;54.00;;;20.73;39.40;95387.31;5011977;28;20263;-78
2022/07/20 01:51:30;;;;;;;0.50;0.50;;;20.20;54.00;;;20.68;39.61;95384.53;5028266;28;20234;-78
2022/07/20 01:53:57;;;;;;;0.40;0.40;;;20.20;54.10;;;20.62;40.16;95382.84;5027167;28;20185;-77
2022/07/20 01:56:24;;;;;;;0.40;0.40;;;20.10;54.30;;;20.57;40.39;95380.91;4994887;28;20220;-77
2022/07/20 01:58:52;;;;;;;0.40;0.40;;;20.10;54.70;;;20.50;39.98;95380.25;5024728;28;20200;-77
2022/07/20 02:01:21;;;;;;;0.50;0.50;;;20.00;54.50;;;20.43;39.91;95383.09;5012822;28;20343;-77
2022/07/20 02:03:49;;;;;;;0.50;0.50;;;20.00;54.60;;;20.38;39.95;95377.69;5028777;28;20199;-77
2022/07/20 02:06:16;;;;;;;0.50;0.50;;;19.90;54.80;;;20.36;40.76;95370.97;5018482;28;20644;-77
2022/07/20 02:08:43;;;;;;;0.50;0.50;;;19.90;55.00;;;20.31;40.67;95366.38;5011355;28;20244;-78
2022/07/20 02:11:10;;;;;;;0.40;0.40;;;19.80;54.90;;;20.25;41.03;95365.50;5005565;28;20228;-78
2022/07/20 02:13:37;;;;;;;0.50;0.50;;;19.80;55.30;;;20.25;40.79;95370.00;4995174;28;20193;-78
2022/07/20 02:16:17;;;;;;;0.40;0.40;;;19.80;55.30;;;20.21;40.88;95364.34;4994927;28;20216;-77
2022/07/20 02:18:52;;;;;;;0.50;0.50;;;19.70;55.50;;;20.18;40.85;95366.69;4996095;28;20264;-77
2022/07/20 02:21:22;;;;;;;0.40;0.40;;;19.70;55.70;;;20.16;41.12;95361.59;4995548;28;20763;-78
2022/07/20 02:23:51;;;;;;;0.50;0.50;;;19.70;55.60;;;20.11;41.43;95359.66;5000254;28;20663;-77
2022/07/20 02:26:18;;;;;;;0.45;0.45;;;19.70;55.70;;;20.13;41.47;95360.25;5011375;28;20304;-77
2022/07/20 02:28:46;;;;;;;0.50;0.50;;;19.60;55.70;;;20.10;41.34;95352.75;4995201;28;20683;-78
2022/07/20 02:31:15;;;;;;;0.50;0.50;;;19.60;55.90;;;20.09;41.37;95352.97;4995225;28;20216;-78
2022/07/20 02:33:42;;;;;;;0.40;0.40;;;19.50;55.90;;;20.03;41.27;95346.78;5010504;28;20713;-77
2022/07/20 02:36:09;;;;;;;0.45;0.45;;;19.50;55.80;;;20.06;41.27;95348.13;5021279;28;20220;-78
2022/07/20 02:38:37;;;;;;;0.50;0.50;;;19.50;56.00;;;20.04;41.53;95353.69;5006848;28;20658;-77
2022/07/20 02:41:05;;;;;;;0.40;0.40;;;19.50;56.10;;;20.02;41.79;95347.81;5027633;28;20226;-77
2022/07/20 02:43:32;;;;;;;0.50;0.50;;;19.50;56.20;;;20.00;41.56;95347.22;5029520;28;20241;-77
2022/07/20 02:45:59;;;;;;;0.50;0.50;;;19.50;56.50;;;20.00;41.51;95349.91;5013433;28;20701;-77
2022/07/20 02:48:26;;;;;;;0.50;0.50;;;19.50;56.40;;;19.98;41.78;95352.81;5013209;28;20767;-78
2022/07/20 02:50:54;;;;;;;0.70;0.70;;;19.50;56.50;;;19.97;41.72;95347.72;5027621;28;20224;-77
2022/07/20 02:53:21;;;;;;;0.40;0.40;;;19.40;56.40;;;19.96;41.32;95354.09;5011255;28;20207;-78
2022/07/20 02:55:48;;;;;;;0.40;0.40;;;19.40;56.70;;;19.91;41.79;95346.00;4993321;28;20236;-77
2022/07/20 02:58:16;;;;;;;0.40;0.40;;;19.40;56.80;;;19.91;42.17;95349.50;5029478;28;20298;-78
2022/07/20 03:00:43;;;;;;;0.50;0.50;;;19.40;56.70;;;19.89;42.24;95356.09;5024330;28;20209;-77
2022/07/20 03:03:11;;;;;;;0.47;0.47;;;19.40;56.90;;;19.87;41.71;95364.31;5027312;28;20655;-77
2022/07/20 03:05:38;;;;;;;0.45;0.45;;;19.30;56.90;;;19.85;42.15;95361.09;5013404;28;20228;-77
2022/07/20 03:08:07;;;;;;;0.40;0.40;;;19.30;56.90;;;19.81;42.52;95354.59;5004528;28;20197;-77
2022/07/20 03:10:35;;;;;;;0.40;0.40;;;19.30;57.10;;;19.79;42.60;95362.03;5028084;28;20571;-77
2022/07/20 03:13:03;;;;;;;0.50;0.50;;;19.30;57.30;;;19.78;42.05;95366.53;5030777;28;20254;-77
2022/07/20 03:15:31;;;;;;;0.50;0.50;;;19.20;57.20;;;19.76;42.71;95359.81;5010325;28;20717;-77
2022/07/20 03:17:58;;;;;;;0.40;0.40;;;19.20;57.20;;;19.72;42.72;95359.50;4978383;28;20686;-77
2022/07/20 03:20:28;;;;;;;0.40;0.40;;;19.20;57.30;;;19.72;42.63;95362.16;4992576;28;20231;-77
2022/07/20 03:22:56;;;;;;;0.45;0.45;;;19.20;57.80;;;19.70;42.97;95364.25;5014316;28;20192;-77
2022/07/20 03:25:25;;;;;;;0.50;0.50;;;19.20;57.60;;;19.68;42.59;95361.81;5009138;28;20220;-77
2022/07/20 03:27:54;;;;;;;0.43;0.43;;;19.20;57.50;;;19.68;42.67;95367.16;5006195;28;20196;-77
2022/07/20 03:30:22;;;;;;;0.40;0.40;;;19.10;57.50;;;19.66;43.05;95360.44;5002562;28;20612;-77
2022/07/20 03:32:49;;;;;;;0.47;0.47;;;19.20;57.70;;;19.66;42.62;95360.44;5013214;28;20238;-77
2022/07/20 03:35:18;;;;;;;0.40;0.40;;;19.10;57.50;;;19.62;42.52;95354.78;5022597;28;20219;-77
2022/07/20 03:37:45;;;;;;;0.50;0.50;;;19.10;57.60;;;19.67;42.87;95359.41;5027130;28;20561;-77
2022/07/20 03:40:14;;;;;;;0.40;0.40;;;19.10;57.90;;;19.66;42.91;95365.78;5032869;28;20287;-77
2022/07/20 03:42:41;;;;;;;0.50;0.50;;;19.10;57.80;;;19.64;42.96;95365.19;5033895;28;20242;-78
2022/07/20 03:45:09;;;;;;;0.45;0.45;;;19.10;57.70;;;19.64;42.98;95367.84;5012859;28;20652;-77
2022/07/20 03:47:36;;;;;;;0.50;0.50;;;19.10;58.00;;;19.62;43.14;95369.97;5023242;28;20196;-78
2022/07/20 03:50:05;;;;;;;0.50;0.50;;;19.10;57.90;;;19.64;42.86;95378.50;5015106;28;20220;-77
2022/07/20 03:52:32;;;;;;;0.40;0.40;;;19.10;58.10;;;19.63;43.25;95374.25;4992772;28;20667;-77
2022/07/20 03:54:59;;;;;;;0.40;0.40;;;19.10;58.10;;;19.66;42.92;95376.41;5022649;28;20207;-77
2022/07/20 03:57:27;;;;;;;0.50;0.50;;;19.10;58.20;;;19.69;43.17;95375.94;5013769;28;20403;-77
2022/07/20 03:59:54;;;;;;;0.40;0.40;;;19.10;58.40;;;19.70;43.29;95374.09;4996822;28;20674;-77
2022/07/20 04:02:21;;;;;;;0.40;0.40;;;19.10;58.30;;;19.72;43.18;95369.34;5023991;28;20327;-78
2022/07/20 04:04:49;;;;;;;0.40;0.40;;;19.20;58.50;;;19.75;43.58;95382.97;5013265;28;20192;-78
2022/07/20 04:07:16;;;;;;;0.40;0.40;;;19.20;58.60;;;19.74;43.40;95375.22;5024283;28;20240;-77
2022/07/20 04:09:46;;;;;;;0.40;0.40;;;19.20;58.60;;;19.80;43.73;95379.63;5028585;28;20569;-77
2022/07/20 04:12:19;;;;;;;0.40;0.40;;;19.30;58.80;;;19.81;44.01;95375.88;5015855;28;20303;-77
2022/07/20 04:14:49;;;;;;;0.40;0.40;;;19.30;59.00;;;19.84;43.87;95370.91;5033315;28;20231;-78
2022/07/20 04:17:18;;;;;;;0.40;0.40;;;19.30;58.90;;;19.89;44.03;95369.41;5010906;28;20327;-77
2022/07/20 04:19:46;;;;;;;0.40;0.40;;;19.30;58.90;;;19.93;43.74;95367.88;5012798;28;20203;-76
2022/07/20 04:22:13;;;;;;;0.40;0.40;;;19.40;59.10;;;19.93;43.83;95367.88;5016679;28;20250;-77
2022/07/20 04:24:40;;;;;;;0.50;0.50;;;19.50;59.10;;;20.02;43.88;95373.63;5021575;28;20201;-77
2022/07/20 04:27:07;;;;;;;0.40;0.40;;;19.40;59.10;;;20.06;43.84;95374.78;4995942;28;20227;-78
2022/07/20 04:29:35;;;;;;;0.40;0.40;;;19.50;59.40;;;20.11;44.03;95380.97;5014233;28;20762;-78
2022/07/20 04:32:03;;;;;;;0.40;0.40;;;19.60;59.40;;;20.10;44.21;95371.38;5015640;28;20220;-78
2022/07/20 04:34:31;;;;;;;0.47;0.47;;;19.60;59.50;;;20.21;43.99;95385.66;5014218;28;20192;-78
2022/07/20 04:37:05;;;;;;;0.40;0.40;;;19.70;59.60;;;20.27;43.89;95382.03;5016006;28;20326;-77
2022/07/20 04:39:32;;;;;;;0.40;0.40;;;19.70;59.70;;;20.31;44.10;95380.50;5033027;28;20199;-78
2022/07/20 04:41:59;;;;;;;0.40;0.40;;;19.80;59.80;;;20.39;44.33;95386.50;5015345;28;20690;-77
2022/07/20 04:44:26;;;;;;;0.40;0.40;;;19.90;60.00;;;20.45;44.24;95382.84;5012919;28;20199;-78
2022/07/20 04:46:53;;;;;;;0.50;0.50;;;19.90;59.80;;;20.53;44.33;95387.78;5032529;28;20220;-78
2022/07/20 04:49:21;;;;;;;0.35;0.35;;;20.10;60.10;;;20.59;44.39;95392.16;5032493;28;20601;-78
2022/07/20 04:51:48;;;;;;;0.47;0.47;;;20.10;60.20;;;20.66;44.30;95396.50;5011513;28;20232;-78
2022/07/20 04:54:18;;;;;;;0.40;0.40;;;20.10;60.20;;;20.73;44.63;95389.19;4996600;28;20189;-78
2022/07/20 04:56:47;;;;;;;0.40;0.40;;;20.20;60.30;;;20.78;44.99;95390.03;5012580;28;20231;-78
2022/07/20 04:59:14;;;;;;;0.50;0.50;;;20.30;60.30;;;20.88;44.52;95393.91;5015986;28;20200;-77
2022/07/20 05:01:43;;;;;;;0.40;0.40;;;20.40;60.40;;;20.94;44.84;95391.06;4984102;28;20315;-78
2022/07/20 05:04:13;;;;;;;0.40;0.40;;;20.40;60.30;;;21.04;44.70;95386.94;4995295;28;20221;-78
2022/07/20 05:06:41;;;;;;;0.40;0.40;;;20.50;60.30;;;21.10;44.65;95383.28;4998420;28;20204;-79
2022/07/20 05:09:10;;;;;;;0.50;0.50;;;20.60;60.40;;;21.18;44.59;95380.19;5006771;28;20700;-78
2022/07/20 05:11:39;;;;;;;0.40;0.40;;;20.70;60.30;;;21.28;45.15;95382.19;4996743;28;20319;-77
2022/07/20 05:14:08;;;;;;;0.43;0.43;;;20.80;60.40;;;21.36;44.70;95386.25;4983356;28;20223;-77
2022/07/20 05:16:36;;;;;;;0.30;0.30;;;20.90;60.50;;;21.45;44.71;95379.44;4979599;28;20621;-77
2022/07/20 05:19:04;;;;;;;0.40;0.40;;;21.00;60.30;;;21.54;45.13;95385.16;4998556;28;21660;-77
2022/07/20 05:21:39;;;;;;;0.40;0.40;;;21.00;60.40;;;21.57;44.54;95374.03;4995357;28;20259;-77
2022/07/20 05:24:06;;;;;;;0.30;0.30;;;21.10;60.60;;;21.71;44.90;95377.09;5002557;28;20200;-77
2022/07/20 05:26:33;;;;;;;0.38;0.38;;;21.20;60.50;;;21.83;44.85;95379.63;4972588;28;20237;-77
2022/07/20 05:29:01;;;;;;;0.40;0.40;;;21.30;60.70;;;21.91;44.86;95381.84;4990477;28;20569;-77
2022/07/20 05:31:29;;;;;;;0.40;0.40;;;21.50;60.70;;;22.01;44.90;95376.59;5007065;28;20240;-77
2022/07/20 05:33:56;;;;;;;0.50;0.50;;;21.50;60.50;;;22.12;44.97;95379.34;5005955;28;20212;-76
2022/07/20 05:36:24;;;;;;;0.30;0.30;;;21.60;60.70;;;22.22;44.71;95374.09;4993615;28;20227;-77
2022/07/20 05:38:51;;;;;;;0.40;0.40;;;21.70;60.50;;;22.32;45.01;95378.72;4980874;28;20764;-76
2022/07/20 05:41:19;;;;;;;0.40;0.40;;;21.80;60.30;;;22.42;44.30;95368.16;4999217;28;20220;-78
2022/07/20 05:43:46;;;;;;;0.40;0.40;;;21.90;60.20;;;22.54;44.51;95374.13;4999391;28;20206;-77
2022/07/20 05:46:13;;;;;;;0.40;0.40;;;22.10;60.50;;;22.63;44.46;95374.47;4972859;28;20235;-78
2022/07/20 05:48:40;;;;;;;0.30;0.30;;;22.10;60.30;;;22.76;44.14;95373.19;4977401;28;20304;-77
2022/07/20 05:51:08;;;;;;;0.40;0.40;;;22.30;60.20;;;22.88;44.62;95378.34;5001037;28;21756;-77
2022/07/20 05:53:35;;;;;;;0.30;0.30;;;22.40;60.10;;;22.99;44.07;95376.56;4976427;28;20225;-78
2022/07/20 05:56:02;;;;;;;0.38;0.38;;;22.50;59.70;;;23.10;43.90;95366.72;4984489;28;20311;-78
2022/07/20 05:58:29;;;;;;;0.40;0.40;;;22.60;59.40;;;23.23;43.83;95373.47;4989699;28;20430;-77
2022/07/20 06:00:56;;;;;;;0.50;0.50;;;22.70;59.50;;;23.34;43.64;95378.63;5004042;28;20225;-77
2022/07/20 06:03:24;;;;;;;0.40;0.40;;;22.80;59.10;;;23.45;43.43;95373.31;5027074;28;20205;-78
2022/07/20 06:05:51;;;;;;;0.40;0.40;;;22.90;59.30;;;23.57;43.64;95379.25;4987114;28;20243;-78
2022/07/20 06:08:18;;;;;;;0.30;0.30;;;23.10;59.20;;;23.69;43.23;95373.66;4984754;28;20205;-78
2022/07/20 06:10:45;;;;;;;0.40;0.40;;;23.20;59.10;;;23.76;43.27;95374.22;4988486;28;20243;-78
2022/07/20 06:13:12;;;;;;;0.32;0.32;;;23.30;59.30;;;23.92;43.24;95375.06;4975077;28;20294;-78
2022/07/20 06:15:39;;;;;;;0.40;0.40;;;23.40;60.20;;;24.05;43.33;95381.00;4986350;28;20706;-77
2022/07/20 06:18:07;;;;;;;0.30;0.30;;;23.50;58.90;;;24.15;42.95;95381.00;4986574;28;20196;-77
2022/07/20 06:20:35;;;;;;;0.30;0.30;;;23.60;58.80;;;24.24;43.05;95374.06;4992349;28;20837;-77
2022/07/20 06:23:02;;;;;;;0.30;0.30;;;23.70;58.50;;;24.36;42.78;95375.66;5004732;28;21533;-77
2022/07/20 06:25:29;;;;;;;0.32;0.32;;;23.80;58.20;;;24.46;42.50;95370.28;4998651;28;20339;-77
2022/07/20 06:27:58;;;;;;;0.60;0.60;;;24.00;58.30;;;24.56;42.72;95372.16;4997691;28;20219;-77
2022/07/20 06:30:26;;;;;;;0.30;0.30;;;24.10;58.30;;;24.68;42.62;95380.78;5001001;28;20231;-78
2022/07/20 06:32:55;;;;;;;0.30;0.30;;;24.20;58.30;;;24.80;42.66;95382.38;4977795;28;21599;-77
2022/07/20 06:35:22;;;;;;;0.40;0.40;;;24.30;58.10;;;24.89;42.35;95383.41;4993086;28;20232;-78
2022/07/20 06:37:49;;;;;;;0.32;0.32;;;24.40;57.90;;;24.98;42.06;95383.69;5006861;28;20545;-77
2022/07/20 06:40:17;;;;;;;0.35;0.35;;;24.50;57.80;;;25.07;41.91;95382.03;5004297;28;20274;-77
2022/07/20 06:42:44;;;;;;;0.40;0.40;;;24.60;57.60;;;25.15;41.96;95378.00;4992451;28;20702;-78
2022/07/20 06:45:11;;;;;;;0.40;0.40;;;24.70;57.60;;;25.23;42.09;95380.94;5001718;28;20214;-78
2022/07/20 06:47:38;;;;;;;0.28;0.28;;;24.80;59.00;;;25.32;42.50;95378.47;4992219;28;21730;-78
2022/07/20 06:50:06;;;;;;;0.40;0.40;;;24.90;57.90;;;25.38;41.94;95368.56;5008858;28;20237;-78
2022/07/20 06:52:34;;;;;;;0.40;0.40;;;24.90;57.70;;;25.48;42.00;95381.94;4983054;28;20216;-78
2022/07/20 06:55:04;;;;;;;0.20;0.20;;;25.00;57.70;;;25.56;41.85;95375.19;4982825;28;20208;-77
2022/07/20 06:57:32;;;;;;;0.30;0.30;;;25.10;57.50;;;25.66;42.27;95375.16;4976538;28;20210;-78
2022/07/20 06:59:59;;;;;;;0.50;0.50;;;25.20;57.10;;;25.74;41.60;95373.75;4985594;28;20259;-78
2022/07/20 07:02:26;;;;;;;0.32;0.32;;;25.30;57.30;;;25.85;41.75;95371.81;5006814;28;20689;-78
2022/07/20 07:04:54;;;;;;;0.50;0.50;;;25.40;57.50;;;25.96;42.01;95367.97;5004456;28;20247;-78
2022/07/20 07:07:21;;;;;;;0.30;0.30;;;25.50;57.70;;;26.09;41.60;95368.50;5026794;28;20221;-78
2022/07/20 07:09:49;;;;;;;0.30;0.30;;;25.60;57.20;;;26.20;41.01;95368.13;4989987;28;20238;-78
2022/07/20 07:12:16;;;;;;;0.40;0.40;;;25.70;56.70;;;26.33;41.30;95377.44;4995719;28;20213;-77
2022/07/20 07:14:43;;;;;;;0.30;0.30;;;25.80;56.90;;;26.47;41.43;95371.41;4973878;28;20201;-78
2022/07/20 07:17:11;;;;;;;0.30;0.30;;;25.90;56.70;;;26.62;40.88;95370.47;5006137;28;20228;-78
2022/07/20 07:19:40;;;;;;;0.40;0.40;;;26.10;56.50;;;26.76;40.63;95365.28;4993809;28;20214;-79
2022/07/20 07:22:08;;;;;;;0.30;0.30;;;26.20;56.10;;;26.90;40.55;95368.09;5023615;28;20237;-78
2022/07/20 07:24:36;;;;;;;0.20;0.20;;;26.40;56.10;;;27.02;40.05;95357.75;4991284;28;20306;-78
2022/07/20 07:27:03;;;;;;;0.28;0.28;;;26.50;55.60;;;27.19;40.32;95364.56;5004841;28;20736;-79
2022/07/20 07:29:30;;;;;;;0.30;0.30;;;26.60;55.60;;;27.32;40.21;95374.66;5003728;28;20216;-78
2022/07/20 07:32:06;;;;;;;0.30;0.30;;;26.80;55.60;;;27.46;40.07;95366.69;4994450;28;20219;-77
2022/07/20 07:34:33;;;;;;;0.30;0.30;;;26.90;55.40;;;27.60;40.19;95369.47;5003795;28;20287;-78
2022/07/20 07:37:01;;;;;;;0.35;0.35;;;27.00;55.50;;;27.74;39.34;95364.19;4996258;28;20227;-79
2022/07/20 07:39:28;;;;;;;0.30;0.30;;;27.10;54.60;;;27.85;39.68;95362.94;4990658;28;20197;-78
2022/07/20 07:41:55;;;;;;;0.30;0.30;;;27.30;54.80;;;27.97;39.70;95362.53;5002284;28;20287;-78
2022/07/20 07:44:23;;;;;;;0.30;0.30;;;27.40;54.30;;;28.10;39.74;95358.34;4982400;28;20213;-79
2022/07/20 07:46:50;;;;;;;0.30;0.30;;;27.50;54.30;;;28.21;38.74;95358.94;4998124;28;20236;-79
2022/07/20 07:49:17;;;;;;;0.20;0.20;;;27.60;53.90;;;28.33;38.84;95353.94;5003894;28;20213;-79
2022/07/20 07:51:46;;;;;;;0.30;0.30;;;27.80;54.00;;;28.47;38.30;95358.56;5006265;28;20234;-78
2022/07/20 07:54:13;;;;;;;0.38;0.38;;;27.90;53.80;;;28.56;38.03;95348.69;4988739;28;20205;-79
2022/07/20 07:56:41;;;;;;;0.30;0.30;;;28.00;53.40;;;28.72;38.54;95355.47;5010422;28;20702;-79
2022/07/20 07:59:09;;;;;;;0.40;0.40;;;28.10;53.40;;;28.82;37.87;95353.66;4978983;28;20336;-80
2022/07/20 08:01:57;;;;;;;0.40;0.40;;;28.20;52.80;;;28.95;37.44;95352.88;4997601;28;21055;-79
2022/07/20 08:04:25;;;;;;;0.30;0.30;;;28.40;52.30;;;29.05;37.19;95350.00;4996833;28;20208;-79
2022/07/20 08:06:53;;;;;;;0.20;0.20;;;28.50;51.80;;;29.17;36.75;95346.78;4994350;28;20712;-79
2022/07/20 08:09:20;;;;;;;0.20;0.20;;;28.60;52.00;;;29.28;36.83;95347.38;4993710;28;20207;-79
2022/07/20 08:11:47;;;;;;;0.30;0.30;;;28.70;52.00;;;29.41;36.84;95345.00;5029837;28;20697;-80
2022/07/20 08:14:15;;;;;;;0.28;0.28;;;28.80;51.50;;;29.52;36.59;95341.00;5020776;28;20283;-80
2022/07/20 08:16:42;;;;;;;0.30;0.30;;;28.90;51.20;;;29.61;36.27;95331.06;4988292;28;20218;-79
2022/07/20 08:19:10;;;;;;;0.30;0.30;;;29.00;50.70;;;29.77;35.73;95336.97;5007644;28;20616;-79
2022/07/20 08:21:38;;;;;;;0.30;0.30;;;29.10;50.00;;;29.87;33.98;95342.13;5005123;28;20586;-78
2022/07/20 08:24:05;;;;;;;0.40;0.40;;;29.20;48.40;;;30.01;34.04;95342.09;4981917;28;20230;-80
2022/07/20 08:26:33;;;;;;;0.32;0.32;;;29.40;48.60;;;30.13;33.73;95346.19;4994088;28;20229;-78
2022/07/20 08:29:00;;;;;;;0.30;0.30;;;29.50;47.70;;;30.23;33.70;95351.34;4996431;28;20248;-79
2022/07/20 08:31:37;;;;;;;0.30;0.30;;;29.60;47.60;;;30.35;32.88;95348.88;4993707;28;20242;-79
2022/07/20 08:34:05;;;;;;;0.30;0.30;;;29.70;46.80;;;30.44;32.08;95348.16;4995555;28;20207;-79
2022/07/20 08:36:32;;;;;;;0.30;0.30;;;29.80;46.80;;;30.52;31.08;95335.78;5025682;28;20214;-80
2022/07/20 08:38:59;;;;;;;0.30;0.30;;;29.90;45.10;;;30.61;31.39;95340.16;5010263;28;20235;-81
2022/07/20 08:41:27;;;;;;;0.40;0.40;;;30.00;45.10;;;30.71;31.26;95332.88;5004668;28;20647;-80
2022/07/20 08:43:54;;;;;;;0.20;0.20;;;30.10;45.20;;;30.77;30.31;95337.88;4996673;28;20314;-80
2022/07/20 08:46:23;;;;;;;0.30;0.30;;;30.20;44.20;;;30.86;30.28;95342.50;5031918;28;20204;-80
2022/07/20 08:48:53;;;;;;;0.20;0.20;;;30.30;44.10;;;30.90;29.49;95336.16;5028536;28;20209;-80
2022/07/20 08:51:20;;;;;;;0.20;0.20;;;30.30;43.50;;;31.01;30.42;95339.41;5013940;28;20230;-79
2022/07/20 08:53:50;;;;;;;0.25;0.25;;;30.40;44.10;;;31.10;30.62;95339.47;5010573;28;20231;-80
2022/07/20 08:56:17;;;;;;;0.30;0.30;;;30.50;43.80;;;31.20;30.26;95338.38;4996637;28;20216;-79
2022/07/20 08:58:45;;;;;;;0.20;0.20;;;30.60;43.30;;;31.29;29.83;95342.72;5012847;28;20212;-79
2022/07/20 09:01:15;;;;;;;0.22;0.22;;;30.70;43.10;;;31.34;28.66;95339.06;5002006;28;20293;-78
2022/07/20 09:03:44;;;;;;;0.20;0.20;;;30.70;42.30;;;31.41;28.59;95346.75;5011598;28;20203;-79
2022/07/20 09:06:13;;;;;;;0.30;0.30;;;30.80;42.00;;;31.46;28.45;95339.25;5009376;28;20229;-79
2022/07/20 09:09:02;;;;;;;0.30;0.30;;;30.90;42.00;;;31.50;28.30;95333.22;5008514;28;20192;-79
2022/07/20 09:11:31;;;;;;;0.40;0.40;;;31.00;42.20;;;31.56;28.81;95343.56;5012174;28;20296;-79
2022/07/20 09:13:59;;;;;;;0.20;0.20;;;31.00;41.80;;;31.63;28.75;95343.13;4995267;28;20186;-80
2022/07/20 09:16:47;;;;;;;0.30;0.30;;;31.10;42.10;;;31.70;29.26;95339.97;5004221;28;20224;-79
2022/07/20 09:19:16;;;;;;;0.35;0.35;;;31.10;42.40;;;31.76;28.68;95335.97;5016163;28;20189;-80
2022/07/20 09:21:48;;;;;;;0.35;0.35;;;31.20;41.70;;;31.84;28.65;95331.69;5015024;28;20683;-79
2022/07/20 09:24:19;;;;;;;0.30;0.30;;;31.30;41.50;;;31.93;28.80;95335.19;5011351;28;20243;-80
2022/07/20 09:27:04;;;;;;;0.30;0.30;;;31.40;41.60;;;32.00;28.46;95334.72;5012347;28;20216;-80
2022/07/20 09:29:31;;;;;;;0.30;0.30;;;31.40;41.90;;;32.06;28.51;95334.25;5011568;28;20208;-79
2022/07/20 09:32:03;;;;;;;0.30;0.30;;;31.50;41.30;;;32.17;28.80;95333.94;5014373;28;20243;-79
2022/07/20 09:34:37;;;;;;;0.30;0.30;;;31.60;41.50;;;32.24;28.79;95339.69;5014280;28;20250;-78
2022/07/20 09:37:16;;;;;;;0.40;0.40;;;31.60;41.50;;;32.30;28.13;95334.88;5014797;28;20212;-79
2022/07/20 09:40:01;;;;;;;0.30;0.30;;;31.70;41.00;;;32.35;27.81;95337.47;5014382;28;20195;-78
2022/07/20 09:42:43;;;;;;;0.30;0.30;;;31.80;41.20;;;32.41;28.45;95347.81;5011535;28;20201;-79
2022/07/20 09:45:29;;;;;;;0.20;0.20;;;31.90;41.40;;;32.46;27.60;95338.72;4987151;28;20655;-79
2022/07/20 09:48:13;;;;;;;0.30;0.30;;;31.90;40.70;;;32.52;27.84;95342.84;5012863;28;20217;-80
2022/07/20 09:50:44;;;;;;;0.30;0.30;;;32.00;40.60;;;32.56;27.54;95332.94;4995534;28;20781;-78
2022/07/20 09:53:13;;;;;;;0.28;0.28;;;32.00;40.40;;;32.56;27.35;95324.78;5009547;28;20292;-79
2022/07/20 09:55:41;;;;;;;0.30;0.30;;;32.10;39.80;;;32.63;27.50;95334.34;5003212;28;20228;-80
2022/07/20 09:58:10;;;;;;;0.28;0.28;;;32.10;39.80;;;32.61;27.07;95331.19;5030638;28;20270;-80
2022/07/20 10:00:38;;;;;;;0.20;0.20;;;32.10;39.60;;;32.67;27.24;95338.03;5006837;28;20252;-79
2022/07/20 10:03:13;;;;;;;0.20;0.20;;;32.20;40.00;;;32.67;27.99;95336.09;5012784;28;20197;-80
2022/07/20 10:05:42;;;;;;;0.20;0.20;;;32.20;40.10;;;32.70;27.95;95335.47;5025848;28;20245;-79
2022/07/20 10:08:09;;;;;;;0.30;0.30;;;32.20;40.40;;;32.72;27.48;95341.34;5009567;28;20196;-80
2022/07/20 10:10:36;;;;;;;0.30;0.30;;;32.20;39.90;;;32.75;27.13;95336.41;5012426;28;20626;-80
2022/07/20 10:13:04;;;;;;;0.30;0.30;;;32.20;39.70;;;32.79;27.03;95340.91;5012658;28;20230;-80
2022/07/20 10:15:44;;;;;;;0.30;0.30;;;32.30;39.70;;;32.83;27.36;95341.84;5011730;28;20218;-80
2022/07/20 10:18:13;;;;;;;0.30;0.30;;;32.30;39.90;;;32.86;27.71;95333.06;5014681;28;20204;-80
2022/07/20 10:20:49;;;;;;;0.30;0.30;;;32.30;41.20;;;32.94;27.46;95339.56;5007931;28;20221;-80
2022/07/20 10:23:16;;;;;;;0.30;0.30;;;32.40;39.60;;;33.00;27.20;95332.03;5015001;28;20200;-80
2022/07/20 10:25:47;;;;;;;0.30;0.30;;;32.40;39.90;;;33.07;28.00;95339.66;5031618;28;20239;-79
2022/07/20 10:28:26;;;;;;;0.20;0.20;;;32.50;40.60;;;33.12;27.75;95334.88;5013734;28;20205;-79